sensor_id;sensor_type;location;lat;lon;timestamp;P1;P2;P0
35654;PMS1003;21773;50.010;19.972;2023-07-31T00:02:10;6.40;6.40;6.00
35654;PMS1003;21773;50.010;19.972;2023-07-31T00:05:13;9.00;8.20;7.80
35654;PMS1003;21773;50.010;19.972;2023-07-31T00:08:18;7.75;7.75;6.75
35654;PMS1003;21773;50.010;19.972;2023-07-31T00:11:21;8.00;8.00;7.00
35654;PMS1003;21773;50.010;19.972;2023-07-31T00:14:24;7.80;7.80;7.00
35654;PMS1003;21773;50.010;19.972;2023-07-31T00:17:27;5.00;5.00;4.20
35654;PMS1003;21773;50.010;19.972;2023-07-31T00:20:31;8.60;8.60;8.00
35654;PMS1003;21773;50.010;19.972;2023-07-31T00:23:35;5.60;5.60;4.60
35654;PMS1003;21773;50.010;19.972;2023-07-31T00:26:39;7.00;6.00;6.00
35654;PMS1003;21773;50.010;19.972;2023-07-31T00:29:42;7.60;6.00;6.00
35654;PMS1003;21773;50.010;19.972;2023-07-31T00:32:45;5.50;5.00;5.00
35654;PMS1003;21773;50.010;19.972;2023-07-31T00:35:49;5.60;5.00;5.00
35654;PMS1003;21773;50.010;19.972;2023-07-31T00:38:54;7.00;6.00;5.80
35654;PMS1003;21773;50.010;19.972;2023-07-31T00:41:58;6.80;5.80;5.80
35654;PMS1003;21773;50.010;19.972;2023-07-31T00:45:01;5.00;5.00;4.80
35654;PMS1003;21773;50.010;19.972;2023-07-31T00:48:04;8.00;7.60;7.00
35654;PMS1003;21773;50.010;19.972;2023-07-31T00:51:09;8.00;7.00;6.00
35654;PMS1003;21773;50.010;19.972;2023-07-31T00:54:14;6.00;5.00;4.60
35654;PMS1003;21773;50.010;19.972;2023-07-31T00:57:19;5.40;5.40;5.00
35654;PMS1003;21773;50.010;19.972;2023-07-31T01:00:22;8.00;7.00;6.60
35654;PMS1003;21773;50.010;19.972;2023-07-31T01:03:25;6.00;6.00;5.40
35654;PMS1003;21773;50.010;19.972;2023-07-31T01:06:31;5.00;4.75;4.75
35654;PMS1003;21773;50.010;19.972;2023-07-31T01:09:42;4.00;4.00;4.00
35654;PMS1003;21773;50.010;19.972;2023-07-31T01:12:48;5.00;4.40;4.00
35654;PMS1003;21773;50.010;19.972;2023-07-31T01:15:52;6.00;6.00;5.25
35654;PMS1003;21773;50.010;19.972;2023-07-31T01:18:56;6.00;5.80;5.00
35654;PMS1003;21773;50.010;19.972;2023-07-31T01:22:04;4.20;4.20;4.00
35654;PMS1003;21773;50.010;19.972;2023-07-31T01:25:22;6.00;6.00;5.00
35654;PMS1003;21773;50.010;19.972;2023-07-31T01:28:43;6.00;5.00;5.00
35654;PMS1003;21773;50.010;19.972;2023-07-31T01:31:53;7.00;7.00;6.00
35654;PMS1003;21773;50.010;19.972;2023-07-31T01:34:59;5.50;5.50;5.00
35654;PMS1003;21773;50.010;19.972;2023-07-31T01:38:03;6.00;6.00;5.80
35654;PMS1003;21773;50.010;19.972;2023-07-31T01:41:08;6.00;6.00;6.00
35654;PMS1003;21773;50.010;19.972;2023-07-31T01:44:13;5.20;5.00;4.20
35654;PMS1003;21773;50.010;19.972;2023-07-31T01:47:16;8.60;7.00;6.60
35654;PMS1003;21773;50.010;19.972;2023-07-31T01:50:19;6.00;6.00;6.00
35654;PMS1003;21773;50.010;19.972;2023-07-31T01:53:23;7.40;6.80;6.40
35654;PMS1003;21773;50.010;19.972;2023-07-31T01:56:26;7.00;7.00;6.00
35654;PMS1003;21773;50.010;19.972;2023-07-31T01:59:30;6.00;6.00;6.00
35654;PMS1003;21773;50.010;19.972;2023-07-31T02:02:34;4.00;4.00;4.00
35654;PMS1003;21773;50.010;19.972;2023-07-31T02:05:43;5.00;5.00;4.75
35654;PMS1003;21773;50.010;19.972;2023-07-31T02:08:47;5.00;5.00;4.40
35654;PMS1003;21773;50.010;19.972;2023-07-31T02:11:50;4.80;4.20;4.00
35654;PMS1003;21773;50.010;19.972;2023-07-31T02:14:55;5.00;5.00;4.00
35654;PMS1003;21773;50.010;19.972;2023-07-31T02:17:59;6.25;4.75;4.75
35654;PMS1003;21773;50.010;19.972;2023-07-31T02:21:02;8.00;8.00;8.00
35654;PMS1003;21773;50.010;19.972;2023-07-31T02:24:06;6.60;6.60;6.00
35654;PMS1003;21773;50.010;19.972;2023-07-31T02:27:10;6.00;6.00;5.60
35654;PMS1003;21773;50.010;19.972;2023-07-31T02:30:14;6.00;5.75;5.00
35654;PMS1003;21773;50.010;19.972;2023-07-31T02:33:18;5.00;4.00;4.00
35654;PMS1003;21773;50.010;19.972;2023-07-31T02:36:21;5.00;5.00;5.00
35654;PMS1003;21773;50.010;19.972;2023-07-31T02:39:24;4.00;4.00;3.00
35654;PMS1003;21773;50.010;19.972;2023-07-31T02:42:28;5.60;5.00;5.00
35654;PMS1003;21773;50.010;19.972;2023-07-31T02:45:33;5.40;5.00;5.00
35654;PMS1003;21773;50.010;19.972;2023-07-31T02:48:36;6.00;6.00;5.00
35654;PMS1003;21773;50.010;19.972;2023-07-31T02:51:40;5.50;5.50;5.00
35654;PMS1003;21773;50.010;19.972;2023-07-31T02:54:43;5.00;4.00;4.00
35654;PMS1003;21773;50.010;19.972;2023-07-31T02:57:47;6.20;6.20;5.80
35654;PMS1003;21773;50.010;19.972;2023-07-31T03:00:51;4.20;4.00;3.60
35654;PMS1003;21773;50.010;19.972;2023-07-31T03:03:54;6.00;5.25;5.00
35654;PMS1003;21773;50.010;19.972;2023-07-31T03:06:58;8.20;7.00;6.20
35654;PMS1003;21773;50.010;19.972;2023-07-31T03:10:01;7.00;6.00;6.00
35654;PMS1003;21773;50.010;19.972;2023-07-31T03:13:04;7.00;6.40;6.00
35654;PMS1003;21773;50.010;19.972;2023-07-31T03:16:09;8.00;8.00;7.40
35654;PMS1003;21773;50.010;19.972;2023-07-31T03:19:13;7.75;7.75;7.75
35654;PMS1003;21773;50.010;19.972;2023-07-31T03:22:16;9.00;8.00;7.00
35654;PMS1003;21773;50.010;19.972;2023-07-31T03:25:19;9.00;8.00;7.60
35654;PMS1003;21773;50.010;19.972;2023-07-31T03:28:23;9.00;9.00;8.00
35654;PMS1003;21773;50.010;19.972;2023-07-31T03:31:28;9.00;9.00;8.00
35654;PMS1003;21773;50.010;19.972;2023-07-31T03:34:32;8.00;7.00;7.00
35654;PMS1003;21773;50.010;19.972;2023-07-31T03:37:35;7.00;7.00;7.00
35654;PMS1003;21773;50.010;19.972;2023-07-31T03:40:40;6.00;5.40;5.00
35654;PMS1003;21773;50.010;19.972;2023-07-31T03:43:45;6.20;6.00;5.60
35654;PMS1003;21773;50.010;19.972;2023-07-31T03:46:50;6.40;6.00;5.60
35654;PMS1003;21773;50.010;19.972;2023-07-31T03:49:54;5.00;5.00;5.00
35654;PMS1003;21773;50.010;19.972;2023-07-31T03:52:57;7.00;7.00;7.00
35654;PMS1003;21773;50.010;19.972;2023-07-31T03:56:00;7.00;6.50;6.00
35654;PMS1003;21773;50.010;19.972;2023-07-31T03:59:03;7.00;6.00;6.00
35654;PMS1003;21773;50.010;19.972;2023-07-31T04:02:08;9.00;8.00;7.00
35654;PMS1003;21773;50.010;19.972;2023-07-31T04:05:11;7.00;7.00;7.00
35654;PMS1003;21773;50.010;19.972;2023-07-31T04:08:14;6.00;5.60;5.00
35654;PMS1003;21773;50.010;19.972;2023-07-31T04:11:18;4.00;4.00;3.60
35654;PMS1003;21773;50.010;19.972;2023-07-31T04:14:21;6.00;6.00;5.00
35654;PMS1003;21773;50.010;19.972;2023-07-31T04:17:27;6.50;6.50;6.00
35654;PMS1003;21773;50.010;19.972;2023-07-31T04:20:30;7.00;6.40;6.00
35654;PMS1003;21773;50.010;19.972;2023-07-31T04:23:33;4.00;4.00;4.00
35654;PMS1003;21773;50.010;19.972;2023-07-31T04:26:36;4.50;4.00;4.00
35654;PMS1003;21773;50.010;19.972;2023-07-31T04:29:40;5.75;5.75;5.75
35654;PMS1003;21773;50.010;19.972;2023-07-31T04:32:45;5.00;5.00;4.00
35654;PMS1003;21773;50.010;19.972;2023-07-31T04:35:49;5.75;5.00;4.75
35654;PMS1003;21773;50.010;19.972;2023-07-31T04:38:54;5.33;5.00;5.00
35654;PMS1003;21773;50.010;19.972;2023-07-31T04:41:57;6.00;5.75;4.75
35654;PMS1003;21773;50.010;19.972;2023-07-31T04:45:01;5.40;4.40;4.00
35654;PMS1003;21773;50.010;19.972;2023-07-31T04:48:06;6.00;5.00;4.00
35654;PMS1003;21773;50.010;19.972;2023-07-31T04:51:10;6.67;6.00;6.00
35654;PMS1003;21773;50.010;19.972;2023-07-31T04:54:13;7.00;6.75;6.00
35654;PMS1003;21773;50.010;19.972;2023-07-31T04:57:17;7.00;7.00;7.00
35654;PMS1003;21773;50.010;19.972;2023-07-31T05:00:20;5.00;5.00;5.00
35654;PMS1003;21773;50.010;19.972;2023-07-31T05:03:24;6.00;5.00;5.00
35654;PMS1003;21773;50.010;19.972;2023-07-31T05:06:28;6.40;5.00;4.40
35654;PMS1003;21773;50.010;19.972;2023-07-31T05:09:31;7.40;7.00;6.00
35654;PMS1003;21773;50.010;19.972;2023-07-31T05:12:34;6.00;5.00;5.00
35654;PMS1003;21773;50.010;19.972;2023-07-31T05:15:38;5.00;4.40;4.00
35654;PMS1003;21773;50.010;19.972;2023-07-31T05:18:42;8.80;8.80;8.20
35654;PMS1003;21773;50.010;19.972;2023-07-31T05:21:45;9.00;8.00;7.00
35654;PMS1003;21773;50.010;19.972;2023-07-31T05:24:48;5.20;5.20;4.60
35654;PMS1003;21773;50.010;19.972;2023-07-31T05:27:52;10.00;9.00;8.25
35654;PMS1003;21773;50.010;19.972;2023-07-31T05:30:58;9.50;9.50;9.00
35654;PMS1003;21773;50.010;19.972;2023-07-31T05:34:03;8.00;7.40;6.60
35654;PMS1003;21773;50.010;19.972;2023-07-31T05:37:06;10.00;10.00;9.00
35654;PMS1003;21773;50.010;19.972;2023-07-31T05:40:09;10.00;9.50;8.50
35654;PMS1003;21773;50.010;19.972;2023-07-31T05:43:13;7.80;7.00;6.80
35654;PMS1003;21773;50.010;19.972;2023-07-31T05:46:17;8.40;7.40;7.00
35654;PMS1003;21773;50.010;19.972;2023-07-31T05:49:21;8.00;7.75;7.00
35654;PMS1003;21773;50.010;19.972;2023-07-31T05:52:25;8.00;7.00;6.00
35654;PMS1003;21773;50.010;19.972;2023-07-31T05:55:28;8.00;7.25;6.00
35654;PMS1003;21773;50.010;19.972;2023-07-31T05:58:31;7.00;7.00;6.00
35654;PMS1003;21773;50.010;19.972;2023-07-31T06:01:34;6.67;5.67;5.00
35654;PMS1003;21773;50.010;19.972;2023-07-31T06:04:39;8.40;8.00;7.00
35654;PMS1003;21773;50.010;19.972;2023-07-31T06:07:42;7.00;6.00;6.00
35654;PMS1003;21773;50.010;19.972;2023-07-31T06:10:45;7.00;6.60;6.00
35654;PMS1003;21773;50.010;19.972;2023-07-31T06:13:49;10.00;9.00;7.80
35654;PMS1003;21773;50.010;19.972;2023-07-31T06:16:52;8.75;7.75;6.75
35654;PMS1003;21773;50.010;19.972;2023-07-31T06:19:57;9.60;8.60;8.00
35654;PMS1003;21773;50.010;19.972;2023-07-31T06:23:00;9.20;9.00;7.40
35654;PMS1003;21773;50.010;19.972;2023-07-31T06:26:04;9.00;8.60;7.60
35654;PMS1003;21773;50.010;19.972;2023-07-31T06:29:07;10.00;9.40;8.60
35654;PMS1003;21773;50.010;19.972;2023-07-31T06:32:10;8.00;7.00;6.00
35654;PMS1003;21773;50.010;19.972;2023-07-31T06:35:15;10.60;10.60;9.00
35654;PMS1003;21773;50.010;19.972;2023-07-31T06:38:18;8.00;7.00;7.00
35654;PMS1003;21773;50.010;19.972;2023-07-31T06:41:24;8.00;8.00;7.00
35654;PMS1003;21773;50.010;19.972;2023-07-31T06:44:28;7.75;7.00;6.75
35654;PMS1003;21773;50.010;19.972;2023-07-31T06:47:31;7.60;7.60;6.60
35654;PMS1003;21773;50.010;19.972;2023-07-31T06:50:36;9.00;8.00;7.00
35654;PMS1003;21773;50.010;19.972;2023-07-31T06:53:39;6.40;6.40;6.00
35654;PMS1003;21773;50.010;19.972;2023-07-31T06:56:43;9.50;8.50;7.00
35654;PMS1003;21773;50.010;19.972;2023-07-31T06:59:46;9.00;8.00;8.00
35654;PMS1003;21773;50.010;19.972;2023-07-31T07:02:49;7.75;7.00;6.50
35654;PMS1003;21773;50.010;19.972;2023-07-31T07:05:54;8.25;8.25;8.00
35654;PMS1003;21773;50.010;19.972;2023-07-31T07:08:58;7.00;7.00;6.40
35654;PMS1003;21773;50.010;19.972;2023-07-31T07:12:01;7.60;7.00;7.00
35654;PMS1003;21773;50.010;19.972;2023-07-31T07:15:05;5.60;5.60;5.00
35654;PMS1003;21773;50.010;19.972;2023-07-31T07:18:09;6.00;6.00;5.00
35654;PMS1003;21773;50.010;19.972;2023-07-31T07:21:14;6.50;6.00;5.50
35654;PMS1003;21773;50.010;19.972;2023-07-31T07:24:19;5.80;5.20;5.20
35654;PMS1003;21773;50.010;19.972;2023-07-31T07:27:22;8.00;7.00;7.00
35654;PMS1003;21773;50.010;19.972;2023-07-31T07:30:27;6.00;5.00;5.00
35654;PMS1003;21773;50.010;19.972;2023-07-31T07:33:31;9.25;9.00;9.00
35654;PMS1003;21773;50.010;19.972;2023-07-31T07:36:35;7.00;6.60;6.00
35654;PMS1003;21773;50.010;19.972;2023-07-31T07:39:39;6.00;6.00;6.00
35654;PMS1003;21773;50.010;19.972;2023-07-31T07:42:42;10.50;10.50;9.50
35654;PMS1003;21773;50.010;19.972;2023-07-31T07:45:45;7.00;7.00;7.00
35654;PMS1003;21773;50.010;19.972;2023-07-31T07:48:50;6.00;5.80;5.00
35654;PMS1003;21773;50.010;19.972;2023-07-31T07:51:55;7.00;6.00;6.00
35654;PMS1003;21773;50.010;19.972;2023-07-31T07:54:58;8.40;8.00;7.80
35654;PMS1003;21773;50.010;19.972;2023-07-31T07:58:02;7.00;7.00;6.00
35654;PMS1003;21773;50.010;19.972;2023-07-31T08:01:05;5.40;5.40;5.00
35654;PMS1003;21773;50.010;19.972;2023-07-31T08:04:08;6.00;5.00;5.00
35654;PMS1003;21773;50.010;19.972;2023-07-31T08:07:13;6.40;6.00;6.00
35654;PMS1003;21773;50.010;19.972;2023-07-31T08:10:16;7.00;6.00;5.00
35654;PMS1003;21773;50.010;19.972;2023-07-31T08:13:19;7.00;6.50;6.00
35654;PMS1003;21773;50.010;19.972;2023-07-31T08:16:23;4.40;4.40;4.00
35654;PMS1003;21773;50.010;19.972;2023-07-31T08:19:26;5.80;5.00;4.80
35654;PMS1003;21773;50.010;19.972;2023-07-31T08:22:31;6.20;6.00;5.00
35654;PMS1003;21773;50.010;19.972;2023-07-31T08:25:34;6.40;5.40;5.00
35654;PMS1003;21773;50.010;19.972;2023-07-31T08:28:37;6.00;5.80;5.20
35654;PMS1003;21773;50.010;19.972;2023-07-31T08:31:42;7.50;7.00;7.00
35654;PMS1003;21773;50.010;19.972;2023-07-31T08:34:45;8.00;7.00;6.40
35654;PMS1003;21773;50.010;19.972;2023-07-31T08:37:49;7.00;7.00;7.00
35654;PMS1003;21773;50.010;19.972;2023-07-31T08:40:52;9.00;7.00;6.00
35654;PMS1003;21773;50.010;19.972;2023-07-31T08:43:59;6.80;6.80;6.80
35654;PMS1003;21773;50.010;19.972;2023-07-31T08:47:04;9.00;9.00;8.50
35654;PMS1003;21773;50.010;19.972;2023-07-31T08:50:08;9.00;9.00;9.00
35654;PMS1003;21773;50.010;19.972;2023-07-31T08:53:14;8.00;7.20;7.00
35654;PMS1003;21773;50.010;19.972;2023-07-31T08:56:18;6.20;6.00;5.20
35654;PMS1003;21773;50.010;19.972;2023-07-31T08:59:21;6.00;6.00;5.00
35654;PMS1003;21773;50.010;19.972;2023-07-31T09:02:25;7.60;7.00;7.00
35654;PMS1003;21773;50.010;19.972;2023-07-31T09:05:35;7.00;7.00;7.00
35654;PMS1003;21773;50.010;19.972;2023-07-31T09:08:43;8.50;7.50;7.00
35654;PMS1003;21773;50.010;19.972;2023-07-31T09:11:46;4.75;4.75;3.75
35654;PMS1003;21773;50.010;19.972;2023-07-31T09:14:50;9.20;9.20;9.00
35654;PMS1003;21773;50.010;19.972;2023-07-31T09:17:58;4.80;4.20;3.80
35654;PMS1003;21773;50.010;19.972;2023-07-31T09:21:03;7.80;7.80;7.00
35654;PMS1003;21773;50.010;19.972;2023-07-31T09:24:09;7.50;7.50;6.50
35654;PMS1003;21773;50.010;19.972;2023-07-31T09:27:12;7.00;7.00;7.00
35654;PMS1003;21773;50.010;19.972;2023-07-31T09:30:15;7.00;7.00;6.00
35654;PMS1003;21773;50.010;19.972;2023-07-31T09:33:19;5.40;5.00;4.60
35654;PMS1003;21773;50.010;19.972;2023-07-31T09:36:22;4.00;3.20;3.00
35654;PMS1003;21773;50.010;19.972;2023-07-31T09:39:27;4.00;4.00;3.00
35654;PMS1003;21773;50.010;19.972;2023-07-31T09:42:30;5.00;4.00;4.00
35654;PMS1003;21773;50.010;19.972;2023-07-31T09:45:34;5.60;5.60;5.00
35654;PMS1003;21773;50.010;19.972;2023-07-31T09:48:42;5.00;4.50;4.50
35654;PMS1003;21773;50.010;19.972;2023-07-31T09:51:46;4.67;4.00;4.00
35654;PMS1003;21773;50.010;19.972;2023-07-31T09:54:50;4.80;4.80;4.80
35654;PMS1003;21773;50.010;19.972;2023-07-31T09:57:54;4.60;4.60;4.00
35654;PMS1003;21773;50.010;19.972;2023-07-31T10:01:00;5.00;4.00;4.00
35654;PMS1003;21773;50.010;19.972;2023-07-31T10:04:04;5.40;5.00;4.60
35654;PMS1003;21773;50.010;19.972;2023-07-31T10:07:09;6.00;4.50;4.25
35654;PMS1003;21773;50.010;19.972;2023-07-31T10:10:14;3.00;3.00;3.00
35654;PMS1003;21773;50.010;19.972;2023-07-31T10:13:18;5.00;5.00;4.00
35654;PMS1003;21773;50.010;19.972;2023-07-31T10:16:24;6.00;5.00;5.00
35654;PMS1003;21773;50.010;19.972;2023-07-31T10:19:27;5.80;5.80;5.80
35654;PMS1003;21773;50.010;19.972;2023-07-31T10:22:32;5.20;5.00;4.20
35654;PMS1003;21773;50.010;19.972;2023-07-31T10:25:38;5.00;5.00;5.00
35654;PMS1003;21773;50.010;19.972;2023-07-31T10:28:42;7.00;7.00;6.00
35654;PMS1003;21773;50.010;19.972;2023-07-31T10:31:47;6.00;6.00;6.00
35654;PMS1003;21773;50.010;19.972;2023-07-31T10:34:52;3.00;3.00;2.00
35654;PMS1003;21773;50.010;19.972;2023-07-31T10:37:55;5.80;5.80;5.40
35654;PMS1003;21773;50.010;19.972;2023-07-31T10:41:12;4.00;4.00;4.00
35654;PMS1003;21773;50.010;19.972;2023-07-31T10:44:16;6.00;6.00;5.50
35654;PMS1003;21773;50.010;19.972;2023-07-31T10:47:21;6.00;5.60;5.00
35654;PMS1003;21773;50.010;19.972;2023-07-31T10:50:25;5.00;5.00;5.00
35654;PMS1003;21773;50.010;19.972;2023-07-31T10:53:30;3.00;3.00;3.00
35654;PMS1003;21773;50.010;19.972;2023-07-31T10:56:38;5.00;5.00;4.00
35654;PMS1003;21773;50.010;19.972;2023-07-31T10:59:42;4.00;4.00;3.75
35654;PMS1003;21773;50.010;19.972;2023-07-31T11:02:55;5.00;5.00;5.00
35654;PMS1003;21773;50.010;19.972;2023-07-31T11:06:00;6.00;5.25;5.25
35654;PMS1003;21773;50.010;19.972;2023-07-31T11:09:05;5.00;5.00;5.00
35654;PMS1003;21773;50.010;19.972;2023-07-31T11:12:10;4.20;4.20;4.20
35654;PMS1003;21773;50.010;19.972;2023-07-31T11:15:13;6.00;5.00;5.00
35654;PMS1003;21773;50.010;19.972;2023-07-31T11:18:17;5.00;5.00;4.00
35654;PMS1003;21773;50.010;19.972;2023-07-31T11:21:21;4.80;4.80;4.00
35654;PMS1003;21773;50.010;19.972;2023-07-31T11:24:25;4.60;4.60;4.00
35654;PMS1003;21773;50.010;19.972;2023-07-31T11:27:38;5.00;5.00;4.40
35654;PMS1003;21773;50.010;19.972;2023-07-31T11:30:42;6.00;5.00;5.00
35654;PMS1003;21773;50.010;19.972;2023-07-31T11:33:48;3.60;3.60;3.60
35654;PMS1003;21773;50.010;19.972;2023-07-31T11:36:54;3.50;3.00;3.00
35654;PMS1003;21773;50.010;19.972;2023-07-31T11:39:58;4.75;4.75;4.00
35654;PMS1003;21773;50.010;19.972;2023-07-31T11:43:04;5.60;5.60;4.60
35654;PMS1003;21773;50.010;19.972;2023-07-31T11:46:07;4.00;4.00;3.00
35654;PMS1003;21773;50.010;19.972;2023-07-31T11:49:10;4.33;4.33;4.00
35654;PMS1003;21773;50.010;19.972;2023-07-31T11:52:14;2.20;2.20;2.00
35654;PMS1003;21773;50.010;19.972;2023-07-31T11:55:18;6.40;6.40;6.00
35654;PMS1003;21773;50.010;19.972;2023-07-31T11:58:23;5.80;5.80;5.00
35654;PMS1003;21773;50.010;19.972;2023-07-31T12:01:26;5.00;5.00;4.75
35654;PMS1003;21773;50.010;19.972;2023-07-31T12:04:31;4.00;4.00;3.50
35654;PMS1003;21773;50.010;19.972;2023-07-31T12:07:44;5.40;5.00;5.00
35654;PMS1003;21773;50.010;19.972;2023-07-31T12:10:49;5.00;5.00;4.00
35654;PMS1003;21773;50.010;19.972;2023-07-31T12:13:54;3.00;3.00;3.00
35654;PMS1003;21773;50.010;19.972;2023-07-31T12:16:58;1.50;1.50;1.50
35654;PMS1003;21773;50.010;19.972;2023-07-31T12:20:03;2.60;2.60;2.60
35654;PMS1003;21773;50.010;19.972;2023-07-31T12:23:13;5.40;5.40;4.40
35654;PMS1003;21773;50.010;19.972;2023-07-31T12:26:17;5.00;5.00;4.00
35654;PMS1003;21773;50.010;19.972;2023-07-31T12:29:21;3.00;3.00;3.00
35654;PMS1003;21773;50.010;19.972;2023-07-31T12:32:25;4.00;4.00;4.00
35654;PMS1003;21773;50.010;19.972;2023-07-31T12:35:34;4.40;4.00;3.60
35654;PMS1003;21773;50.010;19.972;2023-07-31T12:38:39;4.80;4.20;4.00
35654;PMS1003;21773;50.010;19.972;2023-07-31T12:41:42;4.00;3.00;3.00
35654;PMS1003;21773;50.010;19.972;2023-07-31T12:44:47;3.00;3.00;2.60
35654;PMS1003;21773;50.010;19.972;2023-07-31T12:47:50;6.00;5.00;5.00
35654;PMS1003;21773;50.010;19.972;2023-07-31T12:50:54;4.00;4.00;3.00
35654;PMS1003;21773;50.010;19.972;2023-07-31T12:53:57;5.00;5.00;5.00
35654;PMS1003;21773;50.010;19.972;2023-07-31T12:57:00;5.50;5.50;5.25
35654;PMS1003;21773;50.010;19.972;2023-07-31T13:00:05;6.20;6.00;5.20
35654;PMS1003;21773;50.010;19.972;2023-07-31T13:03:10;5.00;5.00;4.60
35654;PMS1003;21773;50.010;19.972;2023-07-31T13:06:13;5.00;5.00;4.60
35654;PMS1003;21773;50.010;19.972;2023-07-31T13:09:18;5.00;5.00;4.00
35654;PMS1003;21773;50.010;19.972;2023-07-31T13:12:21;3.00;3.00;3.00
35654;PMS1003;21773;50.010;19.972;2023-07-31T13:15:25;3.00;3.00;3.00
35654;PMS1003;21773;50.010;19.972;2023-07-31T13:18:29;5.00;4.40;4.00
35654;PMS1003;21773;50.010;19.972;2023-07-31T13:21:32;3.60;3.60;3.00
35654;PMS1003;21773;50.010;19.972;2023-07-31T13:24:37;4.00;4.00;4.00
35654;PMS1003;21773;50.010;19.972;2023-07-31T13:27:41;2.60;2.60;2.00
35654;PMS1003;21773;50.010;19.972;2023-07-31T13:30:45;4.80;4.80;4.00
35654;PMS1003;21773;50.010;19.972;2023-07-31T13:33:49;3.00;3.00;2.00
35654;PMS1003;21773;50.010;19.972;2023-07-31T13:36:53;5.00;5.00;5.00
35654;PMS1003;21773;50.010;19.972;2023-07-31T13:39:57;4.75;4.25;3.75
35654;PMS1003;21773;50.010;19.972;2023-07-31T13:43:01;3.00;3.00;2.80
35654;PMS1003;21773;50.010;19.972;2023-07-31T13:46:05;3.40;3.00;3.00
35654;PMS1003;21773;50.010;19.972;2023-07-31T13:49:10;5.00;4.00;3.00
35654;PMS1003;21773;50.010;19.972;2023-07-31T13:52:13;3.00;3.00;2.60
35654;PMS1003;21773;50.010;19.972;2023-07-31T13:55:17;3.00;3.00;3.00
35654;PMS1003;21773;50.010;19.972;2023-07-31T13:58:20;4.00;4.00;3.00
35654;PMS1003;21773;50.010;19.972;2023-07-31T14:01:25;4.00;3.00;2.40
35654;PMS1003;21773;50.010;19.972;2023-07-31T14:04:30;2.80;2.00;2.00
35654;PMS1003;21773;50.010;19.972;2023-07-31T14:07:33;3.00;3.00;3.00
35654;PMS1003;21773;50.010;19.972;2023-07-31T14:10:36;3.00;3.00;3.00
35654;PMS1003;21773;50.010;19.972;2023-07-31T14:13:40;3.00;3.00;3.00
35654;PMS1003;21773;50.010;19.972;2023-07-31T14:16:45;3.00;3.00;3.00
35654;PMS1003;21773;50.010;19.972;2023-07-31T14:19:49;3.80;2.20;2.00
35654;PMS1003;21773;50.010;19.972;2023-07-31T14:22:53;3.75;2.75;2.00
35654;PMS1003;21773;50.010;19.972;2023-07-31T14:25:57;3.80;3.80;3.40
35654;PMS1003;21773;50.010;19.972;2023-07-31T14:29:03;4.00;4.00;4.00
35654;PMS1003;21773;50.010;19.972;2023-07-31T14:32:08;4.00;4.00;3.00
35654;PMS1003;21773;50.010;19.972;2023-07-31T14:35:12;4.00;4.00;3.00
35654;PMS1003;21773;50.010;19.972;2023-07-31T14:38:16;4.00;4.00;3.00
35654;PMS1003;21773;50.010;19.972;2023-07-31T14:41:20;3.00;3.00;3.00
35654;PMS1003;21773;50.010;19.972;2023-07-31T14:44:23;3.00;3.00;2.25
35654;PMS1003;21773;50.010;19.972;2023-07-31T14:47:28;3.00;3.00;3.00
35654;PMS1003;21773;50.010;19.972;2023-07-31T14:50:32;5.00;4.00;3.00
35654;PMS1003;21773;50.010;19.972;2023-07-31T14:53:36;5.00;4.00;3.00
35654;PMS1003;21773;50.010;19.972;2023-07-31T14:56:39;6.00;5.00;4.00
35654;PMS1003;21773;50.010;19.972;2023-07-31T14:59:42;4.00;4.00;3.00
35654;PMS1003;21773;50.010;19.972;2023-07-31T15:02:47;2.00;2.00;1.00
35654;PMS1003;21773;50.010;19.972;2023-07-31T15:05:51;4.00;3.00;2.00
35654;PMS1003;21773;50.010;19.972;2023-07-31T15:08:54;3.00;2.00;2.00
35654;PMS1003;21773;50.010;19.972;2023-07-31T15:11:57;4.00;3.00;3.00
35654;PMS1003;21773;50.010;19.972;2023-07-31T15:15:01;2.00;2.00;2.00
35654;PMS1003;21773;50.010;19.972;2023-07-31T15:18:05;4.60;4.00;3.00
35654;PMS1003;21773;50.010;19.972;2023-07-31T15:21:09;2.00;2.00;2.00
35654;PMS1003;21773;50.010;19.972;2023-07-31T15:24:12;6.00;6.00;6.00
35654;PMS1003;21773;50.010;19.972;2023-07-31T15:27:15;6.00;6.00;6.00
35654;PMS1003;21773;50.010;19.972;2023-07-31T15:30:19;6.25;6.25;6.00
35654;PMS1003;21773;50.010;19.972;2023-07-31T15:33:24;4.00;4.00;3.60
35654;PMS1003;21773;50.010;19.972;2023-07-31T15:36:27;5.00;4.00;4.00
35654;PMS1003;21773;50.010;19.972;2023-07-31T15:39:30;5.00;5.00;4.40
35654;PMS1003;21773;50.010;19.972;2023-07-31T15:42:33;3.60;3.60;3.60
35654;PMS1003;21773;50.010;19.972;2023-07-31T15:45:40;3.00;2.40;2.00
35654;PMS1003;21773;50.010;19.972;2023-07-31T15:48:45;5.00;4.00;4.00
35654;PMS1003;21773;50.010;19.972;2023-07-31T15:51:48;3.20;3.00;3.00
35654;PMS1003;21773;50.010;19.972;2023-07-31T15:54:52;5.00;4.00;4.00
35654;PMS1003;21773;50.010;19.972;2023-07-31T15:57:55;4.40;4.00;3.00
35654;PMS1003;21773;50.010;19.972;2023-07-31T16:00:58;4.00;4.00;3.50
35654;PMS1003;21773;50.010;19.972;2023-07-31T16:04:03;4.25;4.25;4.00
35654;PMS1003;21773;50.010;19.972;2023-07-31T16:07:06;5.50;5.00;4.00
35654;PMS1003;21773;50.010;19.972;2023-07-31T16:10:09;4.00;4.00;3.00
35654;PMS1003;21773;50.010;19.972;2023-07-31T16:13:12;5.00;4.60;4.00
35654;PMS1003;21773;50.010;19.972;2023-07-31T16:16:16;4.20;4.20;4.00
35654;PMS1003;21773;50.010;19.972;2023-07-31T16:19:21;5.00;4.50;4.00
35654;PMS1003;21773;50.010;19.972;2023-07-31T16:22:24;5.00;4.00;4.00
35654;PMS1003;21773;50.010;19.972;2023-07-31T16:25:27;4.00;4.00;4.00
35654;PMS1003;21773;50.010;19.972;2023-07-31T16:28:30;6.40;5.40;5.40
35654;PMS1003;21773;50.010;19.972;2023-07-31T16:31:34;4.00;3.50;3.50
35654;PMS1003;21773;50.010;19.972;2023-07-31T16:34:53;4.40;4.40;4.00
35654;PMS1003;21773;50.010;19.972;2023-07-31T16:37:56;5.00;5.00;4.40
35654;PMS1003;21773;50.010;19.972;2023-07-31T16:40:59;5.33;5.33;5.33
35654;PMS1003;21773;50.010;19.972;2023-07-31T16:44:03;5.00;4.40;4.00
35654;PMS1003;21773;50.010;19.972;2023-07-31T16:47:06;3.20;3.20;2.80
35654;PMS1003;21773;50.010;19.972;2023-07-31T16:50:11;5.00;5.00;5.00
35654;PMS1003;21773;50.010;19.972;2023-07-31T16:53:14;5.00;4.00;4.00
35654;PMS1003;21773;50.010;19.972;2023-07-31T16:56:17;4.20;4.00;3.20
35654;PMS1003;21773;50.010;19.972;2023-07-31T16:59:20;4.00;4.00;4.00
35654;PMS1003;21773;50.010;19.972;2023-07-31T17:02:24;4.60;4.00;3.60
35654;PMS1003;21773;50.010;19.972;2023-07-31T17:05:29;6.00;5.00;5.00
35654;PMS1003;21773;50.010;19.972;2023-07-31T17:08:32;6.00;5.50;5.00
35654;PMS1003;21773;50.010;19.972;2023-07-31T17:11:35;6.40;6.00;5.60
35654;PMS1003;21773;50.010;19.972;2023-07-31T17:14:39;4.00;3.20;3.00
35654;PMS1003;21773;50.010;19.972;2023-07-31T17:17:43;4.00;3.00;3.00
35654;PMS1003;21773;50.010;19.972;2023-07-31T17:20:47;4.00;4.00;4.00
35654;PMS1003;21773;50.010;19.972;2023-07-31T17:23:50;4.33;4.33;4.00
35654;PMS1003;21773;50.010;19.972;2023-07-31T17:26:54;4.00;4.00;4.00
35654;PMS1003;21773;50.010;19.972;2023-07-31T17:29:57;5.40;5.00;5.00
35654;PMS1003;21773;50.010;19.972;2023-07-31T17:33:00;4.00;4.00;4.00
35654;PMS1003;21773;50.010;19.972;2023-07-31T17:36:05;3.00;3.00;3.00
35654;PMS1003;21773;50.010;19.972;2023-07-31T17:39:08;7.00;7.00;6.50
35654;PMS1003;21773;50.010;19.972;2023-07-31T17:42:11;8.00;7.00;7.00